sensor_id;sensor_type;location;lat;lon;timestamp;pressure;altitude;pressure_sealevel;temperature;humidity
12172;BME280;6149;52.418;13.668;2023-11-18T00:02:24;101687.53;;;4.93;100.00
12172;BME280;6149;52.418;13.668;2023-11-18T00:04:51;101684.91;;;4.93;100.00
12172;BME280;6149;52.418;13.668;2023-11-18T00:07:17;101693.63;;;4.94;100.00
12172;BME280;6149;52.418;13.668;2023-11-18T00:09:44;101690.16;;;4.93;100.00
12172;BME280;6149;52.418;13.668;2023-11-18T00:12:11;101684.88;;;4.95;100.00
12172;BME280;6149;52.418;13.668;2023-11-18T00:14:40;101683.03;;;5.03;100.00
12172;BME280;6149;52.418;13.668;2023-11-18T00:17:07;101692.72;;;4.98;100.00
12172;BME280;6149;52.418;13.668;2023-11-18T00:19:35;101700.56;;;4.99;100.00
12172;BME280;6149;52.418;13.668;2023-11-18T00:22:01;101698.81;;;4.98;100.00
12172;BME280;6149;52.418;13.668;2023-11-18T00:24:28;101705.81;;;4.98;100.00
12172;BME280;6149;52.418;13.668;2023-11-18T00:26:55;101715.38;;;5.02;100.00
12172;BME280;6149;52.418;13.668;2023-11-18T00:29:21;101717.13;;;5.01;100.00
12172;BME280;6149;52.418;13.668;2023-11-18T00:31:49;101722.28;;;5.11;100.00
12172;BME280;6149;52.418;13.668;2023-11-18T00:34:16;101723.22;;;5.03;100.00
12172;BME280;6149;52.418;13.668;2023-11-18T00:36:42;101724.97;;;5.03;100.00
12172;BME280;6149;52.418;13.668;2023-11-18T00:39:09;101725.84;;;5.03;100.00
12172;BME280;6149;52.418;13.668;2023-11-18T00:41:36;101730.22;;;5.03;100.00
12172;BME280;6149;52.418;13.668;2023-11-18T00:44:02;101725.78;;;5.10;100.00
12172;BME280;6149;52.418;13.668;2023-11-18T00:46:29;101731.94;;;5.07;100.00
12172;BME280;6149;52.418;13.668;2023-11-18T00:48:57;101733.72;;;5.02;100.00
12172;BME280;6149;52.418;13.668;2023-11-18T00:51:24;101732.00;;;5.01;100.00
12172;BME280;6149;52.418;13.668;2023-11-18T00:53:50;101745.97;;;5.00;100.00
12172;BME280;6149;52.418;13.668;2023-11-18T00:56:19;101744.22;;;5.02;100.00
12172;BME280;6149;52.418;13.668;2023-11-18T00:58:46;101744.16;;;5.07;100.00
12172;BME280;6149;52.418;13.668;2023-11-18T01:01:13;101748.59;;;5.01;100.00
12172;BME280;6149;52.418;13.668;2023-11-18T01:03:43;101752.13;;;4.99;100.00
12172;BME280;6149;52.418;13.668;2023-11-18T01:06:11;101754.72;;;5.00;100.00
12172;BME280;6149;52.418;13.668;2023-11-18T01:08:37;101761.72;;;5.00;100.00
12172;BME280;6149;52.418;13.668;2023-11-18T01:11:05;101765.19;;;5.02;100.00
12172;BME280;6149;52.418;13.668;2023-11-18T01:13:32;101767.84;;;4.97;100.00
12172;BME280;6149;52.418;13.668;2023-11-18T01:15:58;101759.97;;;4.99;100.00
12172;BME280;6149;52.418;13.668;2023-11-18T01:18:25;101774.84;;;4.98;100.00
12172;BME280;6149;52.418;13.668;2023-11-18T01:20:51;101777.34;;;5.08;100.00
12172;BME280;6149;52.418;13.668;2023-11-18T01:23:19;101780.81;;;5.11;100.00
12172;BME280;6149;52.418;13.668;2023-11-18T01:25:46;101779.03;;;5.15;100.00
12172;BME280;6149;52.418;13.668;2023-11-18T01:28:16;101781.75;;;5.06;100.00
12172;BME280;6149;52.418;13.668;2023-11-18T01:30:42;101779.97;;;5.09;100.00
12172;BME280;6149;52.418;13.668;2023-11-18T01:33:10;101780.00;;;5.04;100.00
12172;BME280;6149;52.418;13.668;2023-11-18T01:35:37;101787.88;;;5.03;100.00
12172;BME280;6149;52.418;13.668;2023-11-18T01:38:04;101783.56;;;4.99;100.00
12172;BME280;6149;52.418;13.668;2023-11-18T01:40:33;101789.69;;;4.99;100.00
12172;BME280;6149;52.418;13.668;2023-11-18T01:42:59;101789.69;;;4.99;100.00
12172;BME280;6149;52.418;13.668;2023-11-18T01:45:26;101783.56;;;5.00;100.00
12172;BME280;6149;52.418;13.668;2023-11-18T01:47:53;101790.56;;;4.97;100.00
12172;BME280;6149;52.418;13.668;2023-11-18T01:50:20;101793.19;;;4.97;100.00
12172;BME280;6149;52.418;13.668;2023-11-18T01:52:47;101792.28;;;4.99;100.00
12172;BME280;6149;52.418;13.668;2023-11-18T01:55:14;101791.28;;;5.11;100.00
12172;BME280;6149;52.418;13.668;2023-11-18T01:57:43;101802.75;;;5.01;100.00
12172;BME280;6149;52.418;13.668;2023-11-18T02:00:11;101798.31;;;5.08;100.00
12172;BME280;6149;52.418;13.668;2023-11-18T02:02:38;101808.78;;;5.09;100.00
12172;BME280;6149;52.418;13.668;2023-11-18T02:05:05;101801.84;;;5.07;100.00
12172;BME280;6149;52.418;13.668;2023-11-18T02:07:33;101807.16;;;4.97;100.00
12172;BME280;6149;52.418;13.668;2023-11-18T02:10:01;101808.03;;;4.98;100.00
12172;BME280;6149;52.418;13.668;2023-11-18T02:12:31;101810.69;;;4.96;100.00
12172;BME280;6149;52.418;13.668;2023-11-18T02:15:06;101810.66;;;4.98;100.00
12172;BME280;6149;52.418;13.668;2023-11-18T02:17:37;101811.50;;;5.01;100.00
12172;BME280;6149;52.418;13.668;2023-11-18T02:20:06;101811.50;;;5.00;100.00
12172;BME280;6149;52.418;13.668;2023-11-18T02:22:42;101814.97;;;5.05;100.00
12172;BME280;6149;52.418;13.668;2023-11-18T02:25:09;101821.13;;;4.99;100.00
12172;BME280;6149;52.418;13.668;2023-11-18T02:27:38;101815.91;;;4.98;100.00
12172;BME280;6149;52.418;13.668;2023-11-18T02:30:07;101820.28;;;4.97;100.00
12172;BME280;6149;52.418;13.668;2023-11-18T02:32:44;101818.44;;;5.06;100.00
12172;BME280;6149;52.418;13.668;2023-11-18T02:35:19;101821.13;;;4.99;100.00
12172;BME280;6149;52.418;13.668;2023-11-18T02:37:50;101818.50;;;4.99;100.00
12172;BME280;6149;52.418;13.668;2023-11-18T02:40:26;101823.78;;;4.96;100.00
12172;BME280;6149;52.418;13.668;2023-11-18T02:42:57;101819.38;;;4.98;100.00
12172;BME280;6149;52.418;13.668;2023-11-18T02:45:26;101814.09;;;5.03;100.00
12172;BME280;6149;52.418;13.668;2023-11-18T02:47:53;101823.72;;;5.02;100.00
12172;BME280;6149;52.418;13.668;2023-11-18T02:50:22;101828.97;;;5.02;100.00
12172;BME280;6149;52.418;13.668;2023-11-18T02:52:49;101831.59;;;5.02;100.00
12172;BME280;6149;52.418;13.668;2023-11-18T02:55:16;101828.09;;;5.00;100.00
12172;BME280;6149;52.418;13.668;2023-11-18T02:57:42;101828.09;;;5.02;100.00
12172;BME280;6149;52.418;13.668;2023-11-18T03:00:12;101823.72;;;5.02;100.00
12172;BME280;6149;52.418;13.668;2023-11-18T03:02:43;101825.44;;;5.05;100.00
12172;BME280;6149;52.418;13.668;2023-11-18T03:05:11;101828.97;;;5.02;100.00
12172;BME280;6149;52.418;13.668;2023-11-18T03:07:37;101824.63;;;4.98;100.00
12172;BME280;6149;52.418;13.668;2023-11-18T03:10:05;101829.88;;;4.98;100.00
12172;BME280;6149;52.418;13.668;2023-11-18T03:12:37;101827.25;;;4.98;100.00
12172;BME280;6149;52.418;13.668;2023-11-18T03:15:05;101825.50;;;4.97;100.00
12172;BME280;6149;52.418;13.668;2023-11-18T03:17:35;101819.34;;;5.01;100.00
12172;BME280;6149;52.418;13.668;2023-11-18T03:20:05;101822.00;;;5.00;100.00
12172;BME280;6149;52.418;13.668;2023-11-18T03:22:37;101827.25;;;4.98;100.00
12172;BME280;6149;52.418;13.668;2023-11-18T03:25:04;101834.28;;;4.95;100.00
12172;BME280;6149;52.418;13.668;2023-11-18T03:27:33;101828.13;;;4.97;100.00
12172;BME280;6149;52.418;13.668;2023-11-18T03:30:00;101833.41;;;4.93;100.00
12172;BME280;6149;52.418;13.668;2023-11-18T03:32:26;101828.91;;;5.09;100.00
12172;BME280;6149;52.418;13.668;2023-11-18T03:34:54;101836.81;;;5.02;100.00
12172;BME280;6149;52.418;13.668;2023-11-18T03:37:24;101839.47;;;4.99;100.00
12172;BME280;6149;52.418;13.668;2023-11-18T03:39:52;101836.03;;;4.94;100.00
12172;BME280;6149;52.418;13.668;2023-11-18T03:42:19;101848.22;;;5.00;100.00
12172;BME280;6149;52.418;13.668;2023-11-18T03:44:47;101835.16;;;4.95;100.00
12172;BME280;6149;52.418;13.668;2023-11-18T03:47:13;101842.09;;;4.98;100.00
12172;BME280;6149;52.418;13.668;2023-11-18T03:49:40;101849.16;;;4.93;100.00
12172;BME280;6149;52.418;13.668;2023-11-18T03:52:08;101847.41;;;4.92;100.00
12172;BME280;6149;52.418;13.668;2023-11-18T03:54:35;101843.06;;;4.88;100.00
12172;BME280;6149;52.418;13.668;2023-11-18T03:57:01;101843.06;;;4.89;100.00
12172;BME280;6149;52.418;13.668;2023-11-18T03:59:28;101843.03;;;4.92;100.00
12172;BME280;6149;52.418;13.668;2023-11-18T04:01:55;101845.63;;;4.95;100.00
12172;BME280;6149;52.418;13.668;2023-11-18T04:04:21;101845.63;;;4.97;100.00
12172;BME280;6149;52.418;13.668;2023-11-18T04:06:48;101851.75;;;4.94;100.00
12172;BME280;6149;52.418;13.668;2023-11-18T04:09:16;101837.81;;;4.89;100.00
12172;BME280;6149;52.418;13.668;2023-11-18T04:11:42;101850.06;;;4.89;100.00
12172;BME280;6149;52.418;13.668;2023-11-18T04:14:10;101850.94;;;4.89;100.00
12172;BME280;6149;52.418;13.668;2023-11-18T04:16:37;101852.69;;;4.87;100.00
12172;BME280;6149;52.418;13.668;2023-11-18T04:19:04;101857.03;;;4.91;100.00
12172;BME280;6149;52.418;13.668;2023-11-18T04:21:31;101857.03;;;4.91;100.00
12172;BME280;6149;52.418;13.668;2023-11-18T04:23:58;101868.34;;;4.95;100.00
12172;BME280;6149;52.418;13.668;2023-11-18T04:26:26;101864.84;;;4.94;100.00
12172;BME280;6149;52.418;13.668;2023-11-18T04:28:53;101862.25;;;4.91;100.00
12172;BME280;6149;52.418;13.668;2023-11-18T04:31:20;101865.75;;;4.90;100.00
12172;BME280;6149;52.418;13.668;2023-11-18T04:33:47;101857.88;;;4.93;100.00
12172;BME280;6149;52.418;13.668;2023-11-18T04:36:13;101869.22;;;4.95;100.00
12172;BME280;6149;52.418;13.668;2023-11-18T04:38:41;101870.09;;;4.96;100.00
12172;BME280;6149;52.418;13.668;2023-11-18T04:41:08;101877.09;;;4.94;100.00
12172;BME280;6149;52.418;13.668;2023-11-18T04:43:36;101878.84;;;4.93;100.00
12172;BME280;6149;52.418;13.668;2023-11-18T04:46:05;101891.06;;;4.94;100.00
12172;BME280;6149;52.418;13.668;2023-11-18T04:48:32;101887.53;;;5.00;100.00
12172;BME280;6149;52.418;13.668;2023-11-18T04:50:59;101888.41;;;4.99;100.00
12172;BME280;6149;52.418;13.668;2023-11-18T04:53:26;101886.63;;;5.01;100.00
12172;BME280;6149;52.418;13.668;2023-11-18T04:55:53;101883.13;;;5.02;100.00
12172;BME280;6149;52.418;13.668;2023-11-18T04:58:21;101885.72;;;5.05;100.00
12172;BME280;6149;52.418;13.668;2023-11-18T05:00:49;101888.97;;;5.27;100.00
12172;BME280;6149;52.418;13.668;2023-11-18T05:03:16;101882.22;;;5.08;100.00
12172;BME280;6149;52.418;13.668;2023-11-18T05:05:43;101888.38;;;5.03;100.00
12172;BME280;6149;52.418;13.668;2023-11-18T05:08:18;101884.91;;;4.98;100.00
12172;BME280;6149;52.418;13.668;2023-11-18T05:10:46;101888.38;;;5.02;100.00
12172;BME280;6149;52.418;13.668;2023-11-18T05:13:14;101886.63;;;5.02;100.00
12172;BME280;6149;52.418;13.668;2023-11-18T05:15:42;101890.16;;;4.98;100.00
12172;BME280;6149;52.418;13.668;2023-11-18T05:18:11;101898.06;;;4.94;100.00
12172;BME280;6149;52.418;13.668;2023-11-18T05:20:40;101894.59;;;4.90;100.00
12172;BME280;6149;52.418;13.668;2023-11-18T05:23:07;101891.03;;;4.99;100.00
12172;BME280;6149;52.418;13.668;2023-11-18T05:25:37;101893.66;;;4.97;100.00
12172;BME280;6149;52.418;13.668;2023-11-18T05:28:06;101889.28;;;4.99;100.00
12172;BME280;6149;52.418;13.668;2023-11-18T05:30:33;101885.78;;;4.97;100.00
12172;BME280;6149;52.418;13.668;2023-11-18T05:33:02;101881.47;;;4.93;100.00
12172;BME280;6149;52.418;13.668;2023-11-18T05:35:31;101883.22;;;4.91;100.00
12172;BME280;6149;52.418;13.668;2023-11-18T05:37:58;101885.00;;;4.88;100.00
12172;BME280;6149;52.418;13.668;2023-11-18T05:40:25;101881.50;;;4.87;100.00
12172;BME280;6149;52.418;13.668;2023-11-18T05:42:53;101881.53;;;4.86;100.00
12172;BME280;6149;52.418;13.668;2023-11-18T05:45:20;101884.03;;;4.98;100.00
12172;BME280;6149;52.418;13.668;2023-11-18T05:47:57;101885.03;;;4.85;100.00
12172;BME280;6149;52.418;13.668;2023-11-18T05:50:24;101892.00;;;4.87;100.00
12172;BME280;6149;52.418;13.668;2023-11-18T05:52:54;101893.84;;;4.81;100.00
12172;BME280;6149;52.418;13.668;2023-11-18T05:55:21;101895.59;;;4.77;100.00
12172;BME280;6149;52.418;13.668;2023-11-18T05:57:48;101888.63;;;4.76;100.00
12172;BME280;6149;52.418;13.668;2023-11-18T06:00:15;101892.94;;;4.82;100.00
12172;BME280;6149;52.418;13.668;2023-11-18T06:02:44;101898.22;;;4.79;100.00
12172;BME280;6149;52.418;13.668;2023-11-18T06:05:11;101898.28;;;4.68;100.00
12172;BME280;6149;52.418;13.668;2023-11-18T06:07:38;101886.97;;;4.63;100.00
12172;BME280;6149;52.418;13.668;2023-11-18T06:10:07;101892.22;;;4.64;100.00
12172;BME280;6149;52.418;13.668;2023-11-18T06:12:34;101895.75;;;4.56;100.00
12172;BME280;6149;52.418;13.668;2023-11-18T06:15:02;101900.16;;;4.52;100.00
12172;BME280;6149;52.418;13.668;2023-11-18T06:17:29;101901.94;;;4.46;100.00
12172;BME280;6149;52.418;13.668;2023-11-18T06:19:56;101901.16;;;4.38;100.00
12172;BME280;6149;52.418;13.668;2023-11-18T06:22:22;101906.34;;;4.44;100.00
12172;BME280;6149;52.418;13.668;2023-11-18T06:24:49;101910.78;;;4.32;100.00
12172;BME280;6149;52.418;13.668;2023-11-18T06:27:18;101911.69;;;4.28;100.00
12172;BME280;6149;52.418;13.668;2023-11-18T06:29:48;101914.31;;;4.27;100.00
12172;BME280;6149;52.418;13.668;2023-11-18T06:32:17;101909.06;;;4.27;100.00
12172;BME280;6149;52.418;13.668;2023-11-18T06:34:43;101924.75;;;4.28;100.00
12172;BME280;6149;52.418;13.668;2023-11-18T06:37:10;101918.66;;;4.29;100.00
12172;BME280;6149;52.418;13.668;2023-11-18T06:39:41;101922.13;;;4.31;100.00
12172;BME280;6149;52.418;13.668;2023-11-18T06:42:10;101923.00;;;4.33;100.00
12172;BME280;6149;52.418;13.668;2023-11-18T06:44:40;101923.84;;;4.35;100.00
12172;BME280;6149;52.418;13.668;2023-11-18T06:47:07;101932.56;;;4.38;100.00
12172;BME280;6149;52.418;13.668;2023-11-18T06:49:33;101933.44;;;4.38;100.00
12172;BME280;6149;52.418;13.668;2023-11-18T06:52:00;101937.72;;;4.47;100.00
12172;BME280;6149;52.418;13.668;2023-11-18T06:54:28;101934.22;;;4.51;100.00
12172;BME280;6149;52.418;13.668;2023-11-18T06:56:55;101937.69;;;4.50;100.00
12172;BME280;6149;52.418;13.668;2023-11-18T06:59:22;101944.69;;;4.51;100.00
12172;BME280;6149;52.418;13.668;2023-11-18T07:01:50;101952.53;;;4.52;100.00
12172;BME280;6149;52.418;13.668;2023-11-18T07:04:16;101949.03;;;4.53;100.00
12172;BME280;6149;52.418;13.668;2023-11-18T07:06:44;101955.13;;;4.54;100.00
12172;BME280;6149;52.418;13.668;2023-11-18T07:09:10;101952.53;;;4.54;100.00
12172;BME280;6149;52.418;13.668;2023-11-18T07:11:42;101951.66;;;4.55;100.00
12172;BME280;6149;52.418;13.668;2023-11-18T07:14:10;101949.84;;;4.63;100.00
12172;BME280;6149;52.418;13.668;2023-11-18T07:16:38;101954.22;;;4.64;100.00
12172;BME280;6149;52.418;13.668;2023-11-18T07:19:09;101951.59;;;4.64;100.00
12172;BME280;6149;52.418;13.668;2023-11-18T07:21:42;101959.44;;;4.64;100.00
12172;BME280;6149;52.418;13.668;2023-11-18T07:24:09;101960.34;;;4.60;100.00
12172;BME280;6149;52.418;13.668;2023-11-18T07:26:36;101973.44;;;4.61;100.00
12172;BME280;6149;52.418;13.668;2023-11-18T07:29:03;101974.28;;;4.65;100.00
12172;BME280;6149;52.418;13.668;2023-11-18T07:31:29;101975.13;;;4.68;100.00
12172;BME280;6149;52.418;13.668;2023-11-18T07:33:56;101976.00;;;4.69;100.00
12172;BME280;6149;52.418;13.668;2023-11-18T07:36:24;101972.50;;;4.70;100.00
12172;BME280;6149;52.418;13.668;2023-11-18T07:38:52;101983.84;;;4.74;100.00
12172;BME280;6149;52.418;13.668;2023-11-18T07:41:20;101977.69;;;4.78;100.00
12172;BME280;6149;52.418;13.668;2023-11-18T07:43:50;101975.06;;;4.78;100.00
12172;BME280;6149;52.418;13.668;2023-11-18T07:46:17;101979.44;;;4.80;100.00
12172;BME280;6149;52.418;13.668;2023-11-18T07:48:47;101983.69;;;4.93;100.00
12172;BME280;6149;52.418;13.668;2023-11-18T07:51:14;101985.44;;;4.91;100.00
12172;BME280;6149;52.418;13.668;2023-11-18T07:53:42;101988.03;;;4.93;100.00
12172;BME280;6149;52.418;13.668;2023-11-18T07:56:09;101986.28;;;4.96;100.00
12172;BME280;6149;52.418;13.668;2023-11-18T07:58:37;101990.63;;;4.99;100.00
12172;BME280;6149;52.418;13.668;2023-11-18T08:01:04;101988.88;;;4.99;100.00
12172;BME280;6149;52.418;13.668;2023-11-18T08:03:32;101997.59;;;5.01;100.00
12172;BME280;6149;52.418;13.668;2023-11-18T08:05:59;102008.06;;;5.06;100.00
12172;BME280;6149;52.418;13.668;2023-11-18T08:08:27;102001.84;;;5.19;100.00
12172;BME280;6149;52.418;13.668;2023-11-18T08:10:55;102004.47;;;5.16;100.00
12172;BME280;6149;52.418;13.668;2023-11-18T08:13:22;102012.34;;;5.18;100.00
12172;BME280;6149;52.418;13.668;2023-11-18T08:15:49;102009.72;;;5.18;100.00
12172;BME280;6149;52.418;13.668;2023-11-18T08:18:15;102011.50;;;5.14;100.00
12172;BME280;6149;52.418;13.668;2023-11-18T08:20:43;102008.84;;;5.16;100.00
12172;BME280;6149;52.418;13.668;2023-11-18T08:23:10;102014.97;;;5.15;100.00
12172;BME280;6149;52.418;13.668;2023-11-18T08:25:36;102020.16;;;5.21;100.00
12172;BME280;6149;52.418;13.668;2023-11-18T08:28:07;102019.25;;;5.25;100.00
12172;BME280;6149;52.418;13.668;2023-11-18T08:30:36;102018.38;;;5.23;100.00
12172;BME280;6149;52.418;13.668;2023-11-18T08:33:04;102021.00;;;5.23;100.00
12172;BME280;6149;52.418;13.668;2023-11-18T08:35:34;102029.75;;;5.22;100.00
12172;BME280;6149;52.418;13.668;2023-11-18T08:38:00;102032.38;;;5.20;100.00
12172;BME280;6149;52.418;13.668;2023-11-18T08:40:29;102030.69;;;5.16;100.00
12172;BME280;6149;52.418;13.668;2023-11-18T08:42:56;102035.06;;;5.19;100.00
12172;BME280;6149;52.418;13.668;2023-11-18T08:45:25;102034.22;;;5.14;100.00
12172;BME280;6149;52.418;13.668;2023-11-18T08:47:54;102035.94;;;5.18;100.00
12172;BME280;6149;52.418;13.668;2023-11-18T08:50:22;102031.53;;;5.20;100.00
12172;BME280;6149;52.418;13.668;2023-11-18T08:52:50;102021.97;;;5.13;100.00
12172;BME280;6149;52.418;13.668;2023-11-18T08:55:22;102026.31;;;5.17;100.00
12172;BME280;6149;52.418;13.668;2023-11-18T08:58:03;102028.88;;;5.23;100.00
12172;BME280;6149;52.418;13.668;2023-11-18T09:00:42;102022.72;;;5.27;100.00
12172;BME280;6149;52.418;13.668;2023-11-18T09:03:13;102030.56;;;5.30;100.00
12172;BME280;6149;52.418;13.668;2023-11-18T09:05:50;102032.28;;;5.34;100.00
12172;BME280;6149;52.418;13.668;2023-11-18T09:08:26;102034.91;;;5.34;100.00
12172;BME280;6149;52.418;13.668;2023-11-18T09:10:55;102039.28;;;5.33;100.00
12172;BME280;6149;52.418;13.668;2023-11-18T09:13:23;102044.56;;;5.29;100.00
12172;BME280;6149;52.418;13.668;2023-11-18T09:15:55;102054.06;;;5.42;100.00
12172;BME280;6149;52.418;13.668;2023-11-18T09:18:23;102053.25;;;5.34;100.00
12172;BME280;6149;52.418;13.668;2023-11-18T09:20:50;102052.44;;;5.29;100.00
12172;BME280;6149;52.418;13.668;2023-11-18T09:23:17;102055.91;;;5.31;100.00
12172;BME280;6149;52.418;13.668;2023-11-18T09:25:45;102067.25;;;5.34;100.00
12172;BME280;6149;52.418;13.668;2023-11-18T09:28:13;102069.84;;;5.37;100.00
12172;BME280;6149;52.418;13.668;2023-11-18T09:30:41;102073.31;;;5.41;100.00
12172;BME280;6149;52.418;13.668;2023-11-18T09:33:17;102075.03;;;5.44;100.00
12172;BME280;6149;52.418;13.668;2023-11-18T09:35:51;102067.94;;;5.56;100.00
12172;BME280;6149;52.418;13.668;2023-11-18T09:38:21;102072.31;;;5.56;100.00
12172;BME280;6149;52.418;13.668;2023-11-18T09:40:51;102070.56;;;5.56;100.00
12172;BME280;6149;52.418;13.668;2023-11-18T09:43:19;102074.13;;;5.51;100.00
12172;BME280;6149;52.418;13.668;2023-11-18T09:45:48;102065.38;;;5.49;100.00
12172;BME280;6149;52.418;13.668;2023-11-18T09:48:18;102068.00;;;5.50;100.00
12172;BME280;6149;52.418;13.668;2023-11-18T09:50:52;102062.72;;;5.56;100.00
12172;BME280;6149;52.418;13.668;2023-11-18T09:53:19;102060.00;;;5.61;100.00
12172;BME280;6149;52.418;13.668;2023-11-18T09:55:54;102060.84;;;5.66;100.00
12172;BME280;6149;52.418;13.668;2023-11-18T09:58:33;102059.91;;;5.73;100.00
12172;BME280;6149;52.418;13.668;2023-11-18T10:01:06;102068.66;;;5.72;100.00
12172;BME280;6149;52.418;13.668;2023-11-18T10:03:41;102077.44;;;5.68;100.00
12172;BME280;6149;52.418;13.668;2023-11-18T10:06:12;102076.59;;;5.63;100.00
12172;BME280;6149;52.418;13.668;2023-11-18T10:08:40;102076.59;;;5.64;100.00
12172;BME280;6149;52.418;13.668;2023-11-18T10:11:11;102080.06;;;5.66;100.00
12172;BME280;6149;52.418;13.668;2023-11-18T10:13:39;102081.84;;;5.66;100.00
12172;BME280;6149;52.418;13.668;2023-11-18T10:16:07;102086.06;;;5.82;100.00
12172;BME280;6149;52.418;13.668;2023-11-18T10:18:33;102072.91;;;5.90;100.00
12172;BME280;6149;52.418;13.668;2023-11-18T10:21:03;102072.91;;;5.87;100.00
12172;BME280;6149;52.418;13.668;2023-11-18T10:23:33;102067.63;;;5.88;100.00
12172;BME280;6149;52.418;13.668;2023-11-18T10:26:03;102072.03;;;5.89;100.00
12172;BME280;6149;52.418;13.668;2023-11-18T10:28:33;102065.78;;;5.98;100.00
12172;BME280;6149;52.418;13.668;2023-11-18T10:31:04;102066.59;;;6.06;100.00
12172;BME280;6149;52.418;13.668;2023-11-18T10:33:32;102054.31;;;6.07;100.00
12172;BME280;6149;52.418;13.668;2023-11-18T10:36:03;102062.22;;;6.03;100.00
12172;BME280;6149;52.418;13.668;2023-11-18T10:38:38;102054.38;;;6.02;100.00
12172;BME280;6149;52.418;13.668;2023-11-18T10:41:09;102054.28;;;6.10;100.00
12172;BME280;6149;52.418;13.668;2023-11-18T10:43:37;102049.00;;;6.13;100.00
12172;BME280;6149;52.418;13.668;2023-11-18T10:46:08;102050.72;;;6.17;100.00
12172;BME280;6149;52.418;13.668;2023-11-18T10:48:39;102048.03;;;6.23;100.00
12172;BME280;6149;52.418;13.668;2023-11-18T10:51:13;102049.72;;;6.27;100.00
12172;BME280;6149;52.418;13.668;2023-11-18T10:53:41;102054.00;;;6.32;100.00
12172;BME280;6149;52.418;13.668;2023-11-18T10:56:18;102060.97;;;6.36;100.00
12172;BME280;6149;52.418;13.668;2023-11-18T10:58:49;102054.78;;;6.41;100.00
12172;BME280;6149;52.418;13.668;2023-11-18T11:01:27;102063.50;;;6.44;100.00
12172;BME280;6149;52.418;13.668;2023-11-18T11:03:54;102060.91;;;6.43;100.00
12172;BME280;6149;52.418;13.668;2023-11-18T11:06:23;102066.88;;;6.55;100.00
12172;BME280;6149;52.418;13.668;2023-11-18T11:08:51;102059.84;;;6.56;100.00
12172;BME280;6149;52.418;13.668;2023-11-18T11:11:20;102068.56;;;6.61;100.00
12172;BME280;6149;52.418;13.668;2023-11-18T11:13:49;102063.22;;;6.67;100.00
12172;BME280;6149;52.418;13.668;2023-11-18T11:16:25;102071.16;;;6.62;100.00
12172;BME280;6149;52.418;13.668;2023-11-18T11:19:02;102066.81;;;6.60;100.00
12172;BME280;6149;52.418;13.668;2023-11-18T11:21:37;102066.03;;;6.53;100.00
12172;BME280;6149;52.418;13.668;2023-11-18T11:24:20;102072.16;;;6.52;100.00
12172;BME280;6149;52.418;13.668;2023-11-18T11:27:04;102071.34;;;6.49;100.00
12172;BME280;6149;52.418;13.668;2023-11-18T11:29:50;102079.19;;;6.50;100.00
12172;BME280;6149;52.418;13.668;2023-11-18T11:32:25;102075.50;;;6.65;100.00
12172;BME280;6149;52.418;13.668;2023-11-18T11:35:00;102059.78;;;6.62;100.00
12172;BME280;6149;52.418;13.668;2023-11-18T11:37:34;102055.38;;;6.64;100.00
12172;BME280;6149;52.418;13.668;2023-11-18T11:40:01;102052.50;;;6.81;100.00
12172;BME280;6149;52.418;13.668;2023-11-18T11:42:33;102046.44;;;6.74;100.00
12172;BME280;6149;52.418;13.668;2023-11-18T11:45:01;102048.97;;;6.82;100.00
12172;BME280;6149;52.418;13.668;2023-11-18T11:47:30;102049.78;;;6.87;100.00
12172;BME280;6149;52.418;13.668;2023-11-18T11:50:07;102052.34;;;6.91;100.00
12172;BME280;6149;52.418;13.668;2023-11-18T11:52:45;102060.25;;;6.90;100.00
12172;BME280;6149;52.418;13.668;2023-11-18T11:55:21;102048.75;;;6.97;100.00
12172;BME280;6149;52.418;13.668;2023-11-18T11:57:53;102029.50;;;6.95;100.00
12172;BME280;6149;52.418;13.668;2023-11-18T12:00:23;102042.56;;;7.02;100.00
12172;BME280;6149;52.418;13.668;2023-11-18T12:02:52;102034.53;;;7.09;100.00
12172;BME280;6149;52.418;13.668;2023-11-18T12:05:20;102026.81;;;6.99;100.00
12172;BME280;6149;52.418;13.668;2023-11-18T12:07:52;102024.03;;;7.07;100.00
12172;BME280;6149;52.418;13.668;2023-11-18T12:10:21;102026.94;;;6.90;100.00
12172;BME280;6149;52.418;13.668;2023-11-18T12:12:48;102022.63;;;6.86;100.00
12172;BME280;6149;52.418;13.668;2023-11-18T12:15:48;102013.91;;;6.83;100.00
12172;BME280;6149;52.418;13.668;2023-11-18T12:18:19;102005.19;;;6.81;100.00
12172;BME280;6149;52.418;13.668;2023-11-18T12:20:47;102012.31;;;6.72;100.00
12172;BME280;6149;52.418;13.668;2023-11-18T12:23:20;102014.19;;;6.66;100.00
12172;BME280;6149;52.418;13.668;2023-11-18T12:25:50;102017.72;;;6.62;100.00
12172;BME280;6149;52.418;13.668;2023-11-18T12:28:26;102013.44;;;6.56;100.00
12172;BME280;6149;52.418;13.668;2023-11-18T12:31:00;101996.84;;;6.51;100.00
12172;BME280;6149;52.418;13.668;2023-11-18T12:34:02;101991.69;;;6.44;100.00
12172;BME280;6149;52.418;13.668;2023-11-18T12:36:52;101995.25;;;6.40;100.00
12172;BME280;6149;52.418;13.668;2023-11-18T12:39:51;101998.66;;;6.48;100.00
12172;BME280;6149;52.418;13.668;2023-11-18T12:43:00;101996.28;;;6.31;100.00
12172;BME280;6149;52.418;13.668;2023-11-18T12:45:44;101982.31;;;6.26;100.00
12172;BME280;6149;52.418;13.668;2023-11-18T12:48:27;101977.09;;;6.23;100.00
12172;BME280;6149;52.418;13.668;2023-11-18T12:50:58;101984.13;;;6.21;100.00
12172;BME280;6149;52.418;13.668;2023-11-18T12:53:26;101992.03;;;6.19;100.00
12172;BME280;6149;52.418;13.668;2023-11-18T12:55:55;101979.75;;;6.23;100.00
12172;BME280;6149;52.418;13.668;2023-11-18T12:58:25;101988.44;;;6.28;100.00
12172;BME280;6149;52.418;13.668;2023-11-18T13:00:54;101984.09;;;6.25;100.00
12172;BME280;6149;52.418;13.668;2023-11-18T13:03:21;101981.41;;;6.30;100.00